createdAt,value
2024-03-25T00:05:06.206Z,99183.03
2024-03-25T00:15:08.548Z,99180.48
2024-03-25T00:25:10.418Z,99169.73
2024-03-25T00:35:12.072Z,99160.67
2024-03-25T00:45:13.696Z,99151.77
2024-03-25T00:55:15.476Z,99143.91
2024-03-25T01:05:17.244Z,99138.52
2024-03-25T01:15:18.915Z,99138.30
2024-03-25T01:25:20.774Z,99130.33
2024-03-25T01:35:22.749Z,99128.50
2024-03-25T01:45:25.928Z,99124.31
2024-03-25T01:55:30.505Z,99123.27
2024-03-25T02:05:32.172Z,99123.48
2024-03-25T02:15:34.471Z,99117.30
2024-03-25T02:25:36.229Z,99124.77
2024-03-25T02:35:41.536Z,99132.31
2024-03-25T02:45:43.057Z,99128.95
2024-03-25T02:55:44.677Z,99130.18
2024-03-25T03:05:46.231Z,99139.60
2024-03-25T03:15:48.565Z,99135.60
2024-03-25T03:25:50.245Z,99140.52
2024-03-25T03:35:52.893Z,99153.58
2024-03-25T03:45:54.790Z,99152.05
2024-03-25T03:55:57.847Z,99162.10
2024-03-25T04:05:59.405Z,99172.30
2024-03-25T04:16:06.004Z,99173.91
2024-03-25T04:26:11.485Z,99171.02
2024-03-25T04:36:13.960Z,99176.27
2024-03-25T04:46:15.510Z,99172.42
2024-03-25T04:56:17.053Z,99171.33
2024-03-25T05:06:18.698Z,99173.75
2024-03-25T05:16:20.260Z,99172.52
2024-03-25T05:26:21.875Z,99178.35
2024-03-25T05:36:23.624Z,99179.36
2024-03-25T05:46:25.199Z,99183.99
2024-03-25T05:56:31.446Z,99193.23
2024-03-25T06:06:33.268Z,99197.23
2024-03-25T06:16:34.848Z,99202.73
2024-03-25T06:26:36.525Z,99206.11
2024-03-25T06:36:38.828Z,99212.66
2024-03-25T06:46:40.352Z,99213.27
2024-03-25T06:56:42.671Z,99217.34
2024-03-25T07:06:44.183Z,99222.33
2024-03-25T07:16:45.763Z,99216.30
2024-03-25T07:26:47.661Z,99213.38
2024-03-25T07:36:50.142Z,99210.40
2024-03-25T07:46:51.769Z,99211.19
2024-03-25T07:56:56.365Z,99213.61
2024-03-25T08:06:57.920Z,99214.30
2024-03-25T08:16:59.640Z,99220.81
2024-03-25T08:27:01.278Z,99227.06
2024-03-25T08:37:03.290Z,99230.78
2024-03-25T08:47:05.718Z,99235.48
2024-03-25T08:57:07.351Z,99243.63
2024-03-25T09:07:09.442Z,99243.55
2024-03-25T09:17:11.883Z,99246.13
2024-03-25T09:27:15.018Z,99246.42
2024-03-25T09:37:16.916Z,99243.92
2024-03-25T09:47:18.627Z,99251.83
2024-03-25T09:57:20.449Z,99244.55
2024-03-25T10:07:26.604Z,99254.90
2024-03-25T10:17:28.622Z,99250.44
2024-03-25T10:27:30.229Z,99244.55
2024-03-25T10:37:32.469Z,99250.03
2024-03-25T10:47:34.360Z,99248.10
2024-03-25T10:57:37.628Z,99252.65
2024-03-25T11:07:41.351Z,99248.67
2024-03-25T11:17:50.386Z,99246.73
2024-03-25T11:27:52.163Z,99234.66
2024-03-25T11:37:54.164Z,99236.98
2024-03-25T11:47:55.845Z,99240.02
2024-03-25T11:57:57.619Z,99236.92
2024-03-25T12:07:59.177Z,99228.64
2024-03-25T12:18:00.921Z,99230.73
2024-03-25T12:28:03.186Z,99229.42
2024-03-25T12:38:05.596Z,99235.26
2024-03-25T12:48:08.379Z,99242.86
2024-03-25T12:58:10.060Z,99253.84
2024-03-25T13:08:11.621Z,99250.80
2024-03-25T13:18:13.342Z,99256.94
2024-03-25T13:28:15.082Z,99265.53
2024-03-25T13:38:16.857Z,99266.42
2024-03-25T13:48:18.567Z,99268.02
2024-03-25T13:58:20.294Z,99264.59
2024-03-25T14:08:21.834Z,99259.52
2024-03-25T14:18:23.396Z,99267.49
2024-03-25T14:28:25.086Z,99274.48
2024-03-25T14:38:27.366Z,99285.25
2024-03-25T14:48:28.893Z,99287.60
2024-03-25T14:58:31.620Z,99284.57
2024-03-25T15:08:33.487Z,99290.10
2024-03-25T15:18:35.146Z,99295.61
2024-03-25T15:28:39.674Z,99299.63
2024-03-25T15:38:41.232Z,99310.23
2024-03-25T15:48:44.110Z,99313.05
2024-03-25T15:58:45.713Z,99311.25
2024-03-25T16:08:47.300Z,99322.42
2024-03-25T16:18:49.393Z,99336.59
2024-03-25T16:28:51.110Z,99347.25
2024-03-25T16:38:52.664Z,99356.83
2024-03-25T16:48:54.468Z,99365.40
2024-03-25T16:58:56.350Z,99379.98
2024-03-25T17:08:58.466Z,99395.48
2024-03-25T17:19:02.355Z,99413.63
2024-03-25T17:29:04.182Z,99428.39
2024-03-25T17:39:05.930Z,99441.81
2024-03-25T17:49:07.474Z,99453.75
2024-03-25T17:59:09.124Z,99460.12
2024-03-25T18:09:10.725Z,99469.77
2024-03-25T18:19:12.272Z,99481.30
2024-03-25T18:29:16.729Z,99481.58
2024-03-25T18:39:18.287Z,99493.17
2024-03-25T18:49:21.760Z,99498.82
2024-03-25T18:59:26.261Z,99509.33
2024-03-25T19:09:27.825Z,99519.31
2024-03-25T19:19:29.407Z,99526.55
2024-03-25T19:29:31.139Z,99529.89
2024-03-25T19:39:32.717Z,99537.73
2024-03-25T19:49:34.729Z,99556.86
2024-03-25T19:59:36.947Z,99564.43
2024-03-25T20:09:38.741Z,99577.09
2024-03-25T20:19:40.347Z,99586.03
2024-03-25T20:29:42.006Z,99587.23
2024-03-25T20:39:43.766Z,99593.66
2024-03-25T20:49:45.264Z,99600.25
2024-03-25T20:59:48.018Z,99602.89
2024-03-25T21:09:49.767Z,99612.01
2024-03-25T21:19:51.278Z,99613.21
2024-03-25T21:29:52.925Z,99618.35
2024-03-25T21:39:54.465Z,99622.78
2024-03-25T21:49:56.148Z,99635.80
2024-03-25T21:59:57.979Z,99640.84
2024-03-25T22:09:59.497Z,99646.70
2024-03-25T22:20:01.068Z,99653.52
2024-03-25T22:30:02.820Z,99661.21
2024-03-25T22:40:05.483Z,99667.15
2024-03-25T22:50:07.619Z,99670.89
2024-03-25T23:00:15.302Z,99674.30
2024-03-25T23:10:16.809Z,99672.77
2024-03-25T23:20:18.960Z,99676.71
2024-03-25T23:30:20.564Z,99687.89
2024-03-25T23:40:22.605Z,99697.34
2024-03-25T23:50:24.241Z,99700.77
